Terminal Aerodrome Forecast
Issued by NWS

Current Version | Previous Version | Text Only | Print | Product List | Glossary Off
Versions: 1 2 3 4 5 6 7 8 9 10 11 12 13 14

000
FTUS41 KPBZ 152300
TAFMGW
TAF
KMGW 152320Z 1600/1624 31008KT P6SM -SHSN OVC035
     FM160200 32005KT P6SM BKN050
     FM160800 VRB05KT P6SM SCT250=

USA.gov is the U.S. government's official web portal to all federal, state and local government web resources and services.